createdAt,value
2022-11-27T00:02:23.115Z,6.22
2022-11-27T00:04:54.879Z,6.23
2022-11-27T00:07:26.603Z,6.21
2022-11-27T00:09:58.655Z,6.18
2022-11-27T00:12:30.270Z,6.16
2022-11-27T00:15:02.278Z,6.18
2022-11-27T00:17:33.968Z,6.19
2022-11-27T00:20:12.133Z,6.21
2022-11-27T00:22:43.767Z,6.24
2022-11-27T00:25:16.694Z,6.25
2022-11-27T00:27:48.298Z,6.26
2022-11-27T00:30:26.560Z,6.24
2022-11-27T00:32:58.139Z,6.23
2022-11-27T00:35:29.861Z,6.24
2022-11-27T00:38:01.514Z,6.24
2022-11-27T00:40:33.389Z,6.23
2022-11-27T00:43:04.942Z,6.22
2022-11-27T00:45:36.585Z,6.21
2022-11-27T00:48:08.861Z,6.19
2022-11-27T00:50:40.605Z,6.20
2022-11-27T00:53:12.272Z,6.21
2022-11-27T00:55:45.299Z,6.21
2022-11-27T00:58:16.974Z,6.24
2022-11-27T01:00:55.061Z,6.24
2022-11-27T01:03:27.448Z,6.26
2022-11-27T01:06:03.767Z,6.26
2022-11-27T01:08:36.049Z,6.28
2022-11-27T01:11:07.915Z,6.31
2022-11-27T01:13:39.473Z,6.33
2022-11-27T01:16:13.403Z,6.36
2022-11-27T01:18:46.754Z,6.36
2022-11-27T01:21:20.880Z,6.37
2022-11-27T01:23:52.739Z,6.36
2022-11-27T01:26:24.663Z,6.34
2022-11-27T01:28:57.684Z,6.31
2022-11-27T01:31:32.081Z,6.33
2022-11-27T01:34:05.808Z,6.36
2022-11-27T01:36:37.716Z,6.37
2022-11-27T01:39:15.011Z,6.37
2022-11-27T01:41:48.085Z,6.38
2022-11-27T01:44:54.071Z,6.35
2022-11-27T01:47:39.177Z,6.38
2022-11-27T01:50:19.997Z,6.39
2022-11-27T01:52:58.785Z,6.42
2022-11-27T01:55:34.870Z,6.44
2022-11-27T01:58:09.306Z,6.46
2022-11-27T02:00:41.147Z,6.47
2022-11-27T02:03:13.953Z,6.44
2022-11-27T02:05:45.701Z,6.42
2022-11-27T02:08:19.429Z,6.41
2022-11-27T02:10:54.713Z,6.43
2022-11-27T02:13:31.660Z,6.46
2022-11-27T02:16:15.148Z,6.47
2022-11-27T02:18:57.511Z,6.50
2022-11-27T02:21:36.672Z,6.49
2022-11-27T02:24:31.865Z,6.48
2022-11-27T02:27:25.094Z,6.51
2022-11-27T02:30:01.954Z,6.53
2022-11-27T02:32:40.592Z,6.53
2022-11-27T02:35:18.050Z,6.52
2022-11-27T02:37:52.679Z,6.55
2022-11-27T02:40:32.532Z,6.58
2022-11-27T02:43:08.774Z,6.60
2022-11-27T02:45:43.906Z,6.61
2022-11-27T02:48:18.402Z,6.61
2022-11-27T02:50:52.647Z,6.61
2022-11-27T02:53:32.546Z,6.61
2022-11-27T02:56:07.370Z,6.62
2022-11-27T02:58:41.659Z,6.63
2022-11-27T03:01:16.182Z,6.62
2022-11-27T03:03:51.487Z,6.63
2022-11-27T03:06:26.866Z,6.63
2022-11-27T03:09:02.680Z,6.66
2022-11-27T03:11:34.772Z,6.68
2022-11-27T03:14:09.513Z,6.69
2022-11-27T03:16:44.977Z,6.64
2022-11-27T03:19:20.995Z,6.62
2022-11-27T03:21:57.058Z,6.62
2022-11-27T03:24:30.497Z,6.63
2022-11-27T03:27:03.148Z,6.62
2022-11-27T03:29:40.974Z,6.61
2022-11-27T03:32:12.697Z,6.60
2022-11-27T03:34:44.849Z,6.61
2022-11-27T03:37:16.784Z,6.61
2022-11-27T03:39:48.475Z,6.63
2022-11-27T03:42:28.932Z,6.65
2022-11-27T03:45:09.099Z,6.66
2022-11-27T03:47:52.516Z,6.66
2022-11-27T03:50:40.603Z,6.67
2022-11-27T03:53:20.960Z,6.68
2022-11-27T03:56:05.466Z,6.66
2022-11-27T03:58:43.899Z,6.65
2022-11-27T04:01:18.996Z,6.65
2022-11-27T04:03:50.655Z,6.63
2022-11-27T04:06:22.310Z,6.63
2022-11-27T04:08:53.999Z,6.61
2022-11-27T04:11:25.849Z,6.61
2022-11-27T04:13:57.507Z,6.62
2022-11-27T04:16:29.239Z,6.62
2022-11-27T04:19:00.879Z,6.63
2022-11-27T04:21:32.452Z,6.61
2022-11-27T04:24:04.086Z,6.62
2022-11-27T04:26:35.641Z,6.63
2022-11-27T04:29:07.251Z,6.64
2022-11-27T04:31:38.822Z,6.65
2022-11-27T04:34:10.532Z,6.66
2022-11-27T04:36:42.546Z,6.63
2022-11-27T04:39:14.583Z,6.63
2022-11-27T04:41:46.169Z,6.63
2022-11-27T04:44:18.610Z,6.61
2022-11-27T04:46:50.579Z,6.60
2022-11-27T04:49:22.293Z,6.58
2022-11-27T04:51:53.936Z,6.58
2022-11-27T04:54:26.174Z,6.58
2022-11-27T04:56:57.840Z,6.59
2022-11-27T04:59:29.877Z,6.60
2022-11-27T05:02:01.647Z,6.58
2022-11-27T05:04:33.473Z,6.58
2022-11-27T05:07:05.067Z,6.58
2022-11-27T05:09:36.710Z,6.59
2022-11-27T05:12:08.725Z,6.58
2022-11-27T05:14:40.752Z,6.52
2022-11-27T05:17:12.886Z,6.51
2022-11-27T05:19:44.522Z,6.53
2022-11-27T05:22:16.191Z,6.55
2022-11-27T05:24:47.837Z,6.54
2022-11-27T05:27:19.448Z,6.56
2022-11-27T05:29:51.132Z,6.58
2022-11-27T05:32:22.666Z,6.61
2022-11-27T05:34:54.304Z,6.63
2022-11-27T05:37:26.182Z,6.64
2022-11-27T05:39:57.892Z,6.64
2022-11-27T05:42:29.506Z,6.64
2022-11-27T05:45:01.215Z,6.63
2022-11-27T05:47:32.882Z,6.63
2022-11-27T05:50:04.663Z,6.62
2022-11-27T05:52:36.247Z,6.62
2022-11-27T05:55:10.804Z,6.62
2022-11-27T05:57:42.596Z,6.63
2022-11-27T06:00:25.863Z,6.63
2022-11-27T06:02:57.767Z,6.64
2022-11-27T06:05:29.537Z,6.64
2022-11-27T06:08:01.095Z,6.59
2022-11-27T06:10:32.726Z,6.57
2022-11-27T06:13:04.323Z,6.58
2022-11-27T06:15:36.955Z,6.60
2022-11-27T06:18:09.242Z,6.60
2022-11-27T06:20:44.146Z,6.59
2022-11-27T06:23:16.954Z,6.59
2022-11-27T06:25:48.623Z,6.61
2022-11-27T06:28:20.263Z,6.63
2022-11-27T06:30:51.877Z,6.64
2022-11-27T06:33:23.504Z,6.66
2022-11-27T06:35:57.629Z,6.67
2022-11-27T06:38:29.207Z,6.63
2022-11-27T06:41:07.066Z,6.60
2022-11-27T06:43:38.930Z,6.56
2022-11-27T06:46:13.983Z,6.57
2022-11-27T06:48:46.933Z,6.58
2022-11-27T06:51:21.327Z,6.57
2022-11-27T06:53:54.199Z,6.59
2022-11-27T06:56:27.424Z,6.63
2022-11-27T06:59:00.674Z,6.67
2022-11-27T07:01:33.532Z,6.68
2022-11-27T07:04:05.359Z,6.68
2022-11-27T07:06:36.950Z,6.69
2022-11-27T07:09:09.099Z,6.66
2022-11-27T07:11:41.514Z,6.69
2022-11-27T07:14:13.476Z,6.71
2022-11-27T07:16:45.202Z,6.75
2022-11-27T07:19:16.973Z,6.76
2022-11-27T07:21:48.629Z,6.77
2022-11-27T07:24:20.450Z,6.79
2022-11-27T07:26:52.011Z,6.79
2022-11-27T07:29:23.722Z,6.80
2022-11-27T07:31:55.396Z,6.83
2022-11-27T07:34:27.122Z,6.85
2022-11-27T07:36:58.794Z,6.86
2022-11-27T07:40:00.189Z,6.84
2022-11-27T07:42:38.694Z,6.83
2022-11-27T07:45:13.375Z,6.80
2022-11-27T07:47:45.064Z,6.79
2022-11-27T07:50:16.687Z,6.77
2022-11-27T07:52:48.445Z,6.76
2022-11-27T07:55:22.993Z,6.79
2022-11-27T07:57:54.661Z,6.74
2022-11-27T08:00:26.786Z,6.66
2022-11-27T08:02:59.695Z,6.59
2022-11-27T08:05:34.305Z,6.58
2022-11-27T08:08:06.762Z,6.54
2022-11-27T08:10:39.602Z,6.53
2022-11-27T08:13:11.296Z,6.52
2022-11-27T08:15:42.912Z,6.59
2022-11-27T08:18:14.628Z,6.68
2022-11-27T08:20:46.315Z,6.77
2022-11-27T08:23:17.963Z,6.83
2022-11-27T08:25:49.549Z,6.81
2022-11-27T08:28:21.250Z,6.78
2022-11-27T08:31:00.060Z,6.71
2022-11-27T08:33:32.368Z,6.61
2022-11-27T08:36:07.322Z,6.55
2022-11-27T08:38:40.783Z,6.53
2022-11-27T08:41:12.405Z,6.54
2022-11-27T08:43:43.973Z,6.57
2022-11-27T08:46:15.766Z,6.65
2022-11-27T08:48:47.531Z,6.75
2022-11-27T08:51:19.288Z,6.84
2022-11-27T08:53:50.945Z,6.93
2022-11-27T08:56:25.192Z,7.00
2022-11-27T08:58:58.094Z,7.05
2022-11-27T09:01:31.862Z,7.12
2022-11-27T09:04:04.845Z,7.19
2022-11-27T09:06:36.513Z,7.26
2022-11-27T09:09:08.622Z,7.34
2022-11-27T09:11:40.648Z,7.43
2022-11-27T09:14:13.580Z,7.49
2022-11-27T09:16:45.451Z,7.55
2022-11-27T09:19:17.244Z,7.64
2022-11-27T09:21:50.518Z,7.73
2022-11-27T09:24:22.376Z,7.82
2022-11-27T09:26:54.049Z,7.89
2022-11-27T09:29:26.176Z,7.94
2022-11-27T09:31:57.847Z,7.98
2022-11-27T09:34:33.386Z,7.94
2022-11-27T09:37:09.029Z,7.94
2022-11-27T09:39:40.773Z,7.92
2022-11-27T09:42:24.958Z,7.92
2022-11-27T09:45:00.908Z,7.92
2022-11-27T09:47:41.667Z,7.91
2022-11-27T09:50:24.050Z,7.90
2022-11-27T09:52:59.279Z,7.89
2022-11-27T09:55:35.502Z,7.86
2022-11-27T09:58:12.737Z,7.86
2022-11-27T10:00:46.170Z,7.89
2022-11-27T10:03:21.320Z,7.91
2022-11-27T10:06:02.992Z,7.91
2022-11-27T10:08:40.928Z,7.89
2022-11-27T10:11:28.462Z,7.86
2022-11-27T10:14:16.099Z,7.81
2022-11-27T10:16:54.881Z,7.77
2022-11-27T10:19:35.446Z,7.75
2022-11-27T10:25:17.956Z,7.79
2022-11-27T10:28:01.540Z,7.82
2022-11-27T10:30:40.899Z,7.82
2022-11-27T10:33:21.271Z,7.87
2022-11-27T10:35:53.872Z,7.92
2022-11-27T10:38:28.966Z,7.99
2022-11-27T10:41:09.767Z,8.08
2022-11-27T10:43:43.724Z,8.14
2022-11-27T10:46:20.551Z,8.17
2022-11-27T10:48:52.437Z,8.17
2022-11-27T10:51:34.811Z,8.20
2022-11-27T10:54:13.292Z,8.20
2022-11-27T10:57:01.894Z,8.19
2022-11-27T10:59:39.126Z,8.21
2022-11-27T11:02:30.937Z,8.29
2022-11-27T11:08:07.081Z,8.47
2022-11-27T11:10:44.657Z,8.52
2022-11-27T11:13:20.396Z,8.56
2022-11-27T11:15:59.404Z,8.57
2022-11-27T11:18:33.469Z,8.56
2022-11-27T11:21:07.293Z,8.50
2022-11-27T11:23:41.414Z,8.49
2022-11-27T11:26:29.635Z,8.49
2022-11-27T11:29:07.446Z,8.47
2022-11-27T11:31:42.316Z,8.44
2022-11-27T11:34:23.708Z,8.42
2022-11-27T11:37:04.114Z,8.39
2022-11-27T11:39:40.341Z,8.32
2022-11-27T11:42:22.178Z,8.30
2022-11-27T11:44:55.742Z,8.28
2022-11-27T11:47:30.155Z,8.26
2022-11-27T11:50:24.109Z,8.25
2022-11-27T11:53:26.005Z,8.21
2022-11-27T11:56:06.452Z,8.17
2022-11-27T11:58:55.221Z,8.17
2022-11-27T12:01:54.535Z,8.13
2022-11-27T12:04:53.619Z,8.10
2022-11-27T12:07:41.105Z,8.11
2022-11-27T12:10:56.569Z,8.12
2022-11-27T12:13:40.549Z,8.10
2022-11-27T12:16:31.309Z,8.11
2022-11-27T12:19:25.544Z,8.09
2022-11-27T12:22:12.245Z,8.10
2022-11-27T12:24:56.693Z,8.04
2022-11-27T12:27:39.340Z,8.03
2022-11-27T12:30:17.341Z,8.03
2022-11-27T12:33:11.166Z,8.06
2022-11-27T12:35:49.189Z,8.10
2022-11-27T12:38:45.730Z,8.10
2022-11-27T12:41:40.134Z,8.08
2022-11-27T12:44:22.559Z,8.08
2022-11-27T12:47:01.136Z,8.09
2022-11-27T12:49:41.700Z,8.11
2022-11-27T12:52:18.509Z,8.15
2022-11-27T12:54:57.949Z,8.20
2022-11-27T12:57:38.001Z,8.23
2022-11-27T13:00:24.782Z,8.23
2022-11-27T13:03:06.415Z,8.20
2022-11-27T13:05:44.487Z,8.21
2022-11-27T13:08:21.415Z,8.23
2022-11-27T13:11:00.703Z,8.24
2022-11-27T13:13:38.080Z,8.26
2022-11-27T13:16:25.028Z,8.28
2022-11-27T13:19:05.467Z,8.30
2022-11-27T13:21:39.543Z,8.33
2022-11-27T13:24:14.864Z,8.34
2022-11-27T13:26:52.992Z,8.34
2022-11-27T13:29:31.644Z,8.35
2022-11-27T13:32:07.972Z,8.35
2022-11-27T13:34:59.617Z,8.35
2022-11-27T13:41:40.766Z,8.37
2022-11-27T13:44:31.591Z,8.35
2022-11-27T13:47:13.448Z,8.33
2022-11-27T13:50:16.034Z,8.33
2022-11-27T13:52:59.967Z,8.34
2022-11-27T13:55:33.768Z,8.35
2022-11-27T13:58:08.034Z,8.34
2022-11-27T14:00:42.280Z,8.33
2022-11-27T14:03:26.035Z,8.30
2022-11-27T14:05:59.699Z,8.27
2022-11-27T14:08:34.877Z,8.25
2022-11-27T14:11:12.501Z,8.23
2022-11-27T14:13:47.583Z,8.20
2022-11-27T14:16:27.374Z,8.14
2022-11-27T14:19:01.611Z,8.11
2022-11-27T14:21:44.221Z,8.09
2022-11-27T14:24:44.257Z,8.05
2022-11-27T14:27:24.506Z,7.99
2022-11-27T14:29:56.089Z,7.95
2022-11-27T14:32:46.890Z,7.92
2022-11-27T14:35:44.964Z,7.87
2022-11-27T14:42:00.655Z,7.77
2022-11-27T14:44:35.059Z,7.74
2022-11-27T14:47:09.391Z,7.73
2022-11-27T14:49:42.328Z,7.74
2022-11-27T14:52:18.659Z,7.73
2022-11-27T14:54:52.135Z,7.72
2022-11-27T14:57:27.410Z,7.71
2022-11-27T15:00:19.601Z,7.71
2022-11-27T15:02:54.894Z,7.70
2022-11-27T15:05:30.083Z,7.69
2022-11-27T15:08:03.523Z,7.67
2022-11-27T15:10:46.315Z,7.68
2022-11-27T15:13:27.358Z,7.67
2022-11-27T15:16:03.606Z,7.66
2022-11-27T15:18:38.297Z,7.63
2022-11-27T15:21:17.399Z,7.62
2022-11-27T15:23:50.743Z,7.61
2022-11-27T15:26:35.162Z,7.59
2022-11-27T15:29:26.908Z,7.58
2022-11-27T15:31:58.765Z,7.55
2022-11-27T15:34:34.924Z,7.54
2022-11-27T15:37:24.994Z,7.54
2022-11-27T15:40:37.518Z,7.54
2022-11-27T15:43:16.046Z,7.52
2022-11-27T15:45:47.787Z,7.55
2022-11-27T15:48:20.457Z,7.55
2022-11-27T15:50:52.194Z,7.55
2022-11-27T15:53:23.884Z,7.55
2022-11-27T15:55:55.560Z,7.54
2022-11-27T15:58:27.238Z,7.55
2022-11-27T16:00:58.882Z,7.52
2022-11-27T16:03:30.747Z,7.47
2022-11-27T16:06:07.714Z,7.45
2022-11-27T16:08:39.698Z,7.46
2022-11-27T16:11:14.280Z,7.47
2022-11-27T16:13:45.962Z,7.45
2022-11-27T16:16:17.823Z,7.44
2022-11-27T16:18:49.568Z,7.40
2022-11-27T16:21:25.407Z,7.41
2022-11-27T16:24:02.653Z,7.42
2022-11-27T16:26:34.764Z,7.42
2022-11-27T16:29:06.473Z,7.43
2022-11-27T16:31:38.345Z,7.43
2022-11-27T16:34:10.084Z,7.41
2022-11-27T16:36:43.833Z,7.41
2022-11-27T16:39:18.100Z,7.42
2022-11-27T16:41:52.132Z,7.42
2022-11-27T16:44:23.865Z,7.42
2022-11-27T16:46:55.531Z,7.40
2022-11-27T16:49:27.186Z,7.37
2022-11-27T16:51:58.926Z,7.36
2022-11-27T16:54:30.588Z,7.34
2022-11-27T16:57:02.283Z,7.29
2022-11-27T16:59:40.284Z,7.24
2022-11-27T17:02:12.572Z,7.22
2022-11-27T17:05:21.226Z,7.23
2022-11-27T17:07:52.942Z,7.21
2022-11-27T17:10:33.933Z,7.19
2022-11-27T17:13:05.595Z,7.18
2022-11-27T17:15:40.713Z,7.20
2022-11-27T17:18:12.699Z,7.20
2022-11-27T17:20:44.440Z,7.20
2022-11-27T17:23:16.070Z,7.18
2022-11-27T17:25:47.705Z,7.15
2022-11-27T17:28:19.344Z,7.08
2022-11-27T17:30:51.053Z,7.08
2022-11-27T17:33:22.798Z,7.08
2022-11-27T17:35:54.664Z,7.04
2022-11-27T17:38:29.057Z,7.03
2022-11-27T17:41:07.690Z,7.03
2022-11-27T17:43:42.886Z,7.03
2022-11-27T17:46:18.742Z,7.03
2022-11-27T17:48:53.274Z,7.04
2022-11-27T17:51:25.148Z,7.04
2022-11-27T17:54:00.773Z,7.04
2022-11-27T17:56:33.286Z,7.04
2022-11-27T17:59:05.503Z,7.04
2022-11-27T18:01:39.995Z,7.03
2022-11-27T18:04:22.580Z,7.04
2022-11-27T18:06:55.082Z,6.98
2022-11-27T18:09:27.162Z,6.96
2022-11-27T18:11:59.310Z,6.95
2022-11-27T18:14:31.183Z,6.96
2022-11-27T18:17:05.023Z,6.97
2022-11-27T18:19:43.198Z,6.95
2022-11-27T18:22:22.549Z,6.93
2022-11-27T18:24:54.267Z,6.93
2022-11-27T18:27:26.165Z,6.93
2022-11-27T18:30:00.152Z,6.92
2022-11-27T18:32:32.006Z,6.91
2022-11-27T18:35:06.515Z,6.90
2022-11-27T18:37:38.890Z,6.91
2022-11-27T18:40:13.678Z,6.91
2022-11-27T18:42:51.768Z,6.92
2022-11-27T18:45:36.892Z,6.89
2022-11-27T18:48:11.628Z,6.87
2022-11-27T18:50:43.516Z,6.88
2022-11-27T18:53:15.392Z,6.86
2022-11-27T18:55:52.567Z,6.85
2022-11-27T18:58:26.797Z,6.85
2022-11-27T19:00:58.569Z,6.82
2022-11-27T19:03:36.777Z,6.80
2022-11-27T19:06:18.523Z,6.80
2022-11-27T19:08:50.572Z,6.78
2022-11-27T19:11:28.585Z,6.74
2022-11-27T19:14:01.976Z,6.71
2022-11-27T19:16:35.645Z,6.69
2022-11-27T19:22:12.674Z,6.66
2022-11-27T19:24:44.482Z,6.63
2022-11-27T19:27:16.382Z,6.60
2022-11-27T19:29:49.127Z,6.60
2022-11-27T19:32:33.244Z,6.59
2022-11-27T19:35:07.362Z,6.59
2022-11-27T19:37:39.384Z,6.59
2022-11-27T19:40:14.381Z,6.56
2022-11-27T19:42:51.206Z,6.54
2022-11-27T19:45:25.648Z,6.51
2022-11-27T19:48:00.674Z,6.49
2022-11-27T19:50:38.770Z,6.47
2022-11-27T19:53:10.459Z,6.44
2022-11-27T19:55:42.387Z,6.37
2022-11-27T19:58:14.354Z,6.31
2022-11-27T20:00:46.302Z,6.26
2022-11-27T20:03:21.176Z,6.17
2022-11-27T20:06:04.823Z,6.14
2022-11-27T20:09:01.135Z,6.14
2022-11-27T20:11:38.244Z,6.14
2022-11-27T20:14:13.842Z,6.15
2022-11-27T20:16:53.881Z,6.12
2022-11-27T20:19:29.544Z,6.14
2022-11-27T20:22:03.860Z,6.15
2022-11-27T20:24:52.993Z,6.16
2022-11-27T20:27:40.897Z,6.14
2022-11-27T20:30:30.864Z,6.12
2022-11-27T20:33:07.335Z,6.12
2022-11-27T20:35:43.969Z,6.10
2022-11-27T20:38:19.924Z,6.08
2022-11-27T20:40:52.305Z,6.04
2022-11-27T20:43:36.166Z,6.01
2022-11-27T20:46:10.247Z,5.99
2022-11-27T20:48:46.928Z,5.97
2022-11-27T20:51:21.950Z,5.96
2022-11-27T20:54:05.362Z,5.99
2022-11-27T20:56:37.130Z,5.96
2022-11-27T20:59:08.993Z,5.95
2022-11-27T21:01:42.548Z,5.91
2022-11-27T21:04:21.544Z,5.88
2022-11-27T21:06:53.724Z,5.83
2022-11-27T21:09:26.912Z,5.83
2022-11-27T21:11:58.676Z,5.84
2022-11-27T21:14:30.623Z,5.82
2022-11-27T21:17:05.049Z,5.79
2022-11-27T21:19:37.188Z,5.79
2022-11-27T21:22:09.109Z,5.80
2022-11-27T21:24:40.808Z,5.77
2022-11-27T21:27:13.278Z,5.72
2022-11-27T21:29:45.057Z,5.70
2022-11-27T21:32:18.008Z,5.68
2022-11-27T21:34:52.649Z,5.67
2022-11-27T21:37:25.011Z,5.63
2022-11-27T21:39:57.620Z,5.58
2022-11-27T21:42:32.707Z,5.55
2022-11-27T21:45:04.620Z,5.58
2022-11-27T21:47:37.314Z,5.61
2022-11-27T21:50:13.804Z,5.61
2022-11-27T21:52:45.446Z,5.61
2022-11-27T21:55:17.182Z,5.55
2022-11-27T21:57:48.839Z,5.46
2022-11-27T22:00:29.081Z,5.41
2022-11-27T22:03:08.859Z,5.39
2022-11-27T22:05:40.629Z,5.39
2022-11-27T22:08:12.219Z,5.40
2022-11-27T22:10:43.903Z,5.37
2022-11-27T22:13:15.744Z,5.37
2022-11-27T22:15:47.565Z,5.41
2022-11-27T22:18:20.528Z,5.43
2022-11-27T22:20:52.690Z,5.44
2022-11-27T22:23:28.105Z,5.45
2022-11-27T22:26:02.966Z,5.47
2022-11-27T22:28:35.687Z,5.49
2022-11-27T22:31:16.337Z,5.52
2022-11-27T22:33:48.417Z,5.47
2022-11-27T22:36:23.745Z,5.44
2022-11-27T22:38:56.219Z,5.48
2022-11-27T22:41:29.927Z,5.52
2022-11-27T22:44:02.592Z,5.57
2022-11-27T22:46:35.984Z,5.64
2022-11-27T22:49:08.726Z,5.67
2022-11-27T22:51:41.188Z,5.66
2022-11-27T22:54:15.194Z,5.63
2022-11-27T22:56:47.300Z,5.63
2022-11-27T22:59:34.808Z,5.65
2022-11-27T23:02:10.138Z,5.64
2022-11-27T23:04:42.652Z,5.66
2022-11-27T23:07:20.986Z,5.64
2022-11-27T23:09:56.633Z,5.59
2022-11-27T23:12:32.452Z,5.54
2022-11-27T23:15:04.970Z,5.48
2022-11-27T23:17:36.718Z,5.40
2022-11-27T23:20:15.451Z,5.33
2022-11-27T23:22:47.147Z,5.29
2022-11-27T23:25:18.960Z,5.23
2022-11-27T23:27:50.590Z,5.19
2022-11-27T23:30:24.970Z,5.13
2022-11-27T23:32:57.867Z,5.05
2022-11-27T23:35:29.522Z,4.96
2022-11-27T23:38:01.139Z,4.89
2022-11-27T23:40:37.038Z,4.82
2022-11-27T23:43:09.170Z,4.76
2022-11-27T23:46:59.507Z,4.70
2022-11-27T23:49:04.737Z,4.58
2022-11-27T23:51:36.487Z,4.50
2022-11-27T23:54:15.784Z,4.44
2022-11-27T23:56:53.788Z,4.42
2022-11-27T23:59:25.419Z,4.41
